createdAt,value
2019-06-01T00:02:17.602Z,15.00
2019-06-01T00:07:24.314Z,14.90
2019-06-01T00:12:29.721Z,14.90
2019-06-01T00:17:35.140Z,15.10
2019-06-01T00:22:41.218Z,15.10
2019-06-01T00:27:46.772Z,15.30
2019-06-01T00:32:52.203Z,15.30
2019-06-01T00:37:57.612Z,15.30
2019-06-01T00:43:03.056Z,15.20
2019-06-01T00:48:08.407Z,15.10
2019-06-01T00:53:13.760Z,15.00
2019-06-01T00:58:19.213Z,14.80
2019-06-01T01:03:24.668Z,14.70
2019-06-01T01:08:30.068Z,14.60
2019-06-01T01:13:35.441Z,14.50
2019-06-01T01:18:41.839Z,14.50
2019-06-01T01:23:48.214Z,14.40
2019-06-01T01:28:54.862Z,14.30
2019-06-01T01:34:00.333Z,14.20
2019-06-01T01:39:07.576Z,14.10
2019-06-01T01:44:12.931Z,14.00
2019-06-01T01:49:19.368Z,14.00
2019-06-01T01:54:24.758Z,13.80
2019-06-01T01:59:30.088Z,13.70
2019-06-01T02:04:35.492Z,13.60
2019-06-01T02:09:41.216Z,13.50
2019-06-01T02:14:46.541Z,13.50
2019-06-01T02:19:52.013Z,13.50
2019-06-01T02:24:57.816Z,13.50
2019-06-01T02:30:05.578Z,13.30
2019-06-01T02:35:10.273Z,13.30
2019-06-01T02:40:16.873Z,13.20
2019-06-01T02:45:22.555Z,13.00
2019-06-01T02:50:28.209Z,12.80
2019-06-01T02:55:34.655Z,12.80
2019-06-01T03:01:13.181Z,12.80
2019-06-01T03:06:19.830Z,12.70
2019-06-01T03:11:27.136Z,12.60
2019-06-01T03:16:35.737Z,12.60
2019-06-01T03:21:44.152Z,12.40
2019-06-01T03:26:49.491Z,12.40
2019-06-01T03:31:54.932Z,12.30
2019-06-01T03:37:01.105Z,12.40
2019-06-01T03:42:07.969Z,12.40
2019-06-01T03:47:14.512Z,12.30
2019-06-01T03:52:19.963Z,12.30
2019-06-01T03:57:25.390Z,12.40
2019-06-01T04:02:33.446Z,12.30
2019-06-01T04:07:39.024Z,12.30
2019-06-01T04:12:44.434Z,12.40
2019-06-01T04:17:49.768Z,12.40
2019-06-01T04:22:55.220Z,12.40
2019-06-01T04:28:01.965Z,12.60
2019-06-01T04:33:08.895Z,12.60
2019-06-01T04:38:14.262Z,12.90
2019-06-01T04:43:19.653Z,13.20
2019-06-01T04:48:25.032Z,13.20
2019-06-01T04:53:30.408Z,13.40
2019-06-01T04:58:35.860Z,13.60
2019-06-01T05:03:41.292Z,13.70
2019-06-01T05:08:46.824Z,14.00
2019-06-01T05:13:52.180Z,14.20
2019-06-01T05:18:57.552Z,14.70
2019-06-01T05:24:02.911Z,15.40
2019-06-01T05:29:09.390Z,15.90
2019-06-01T05:34:15.869Z,16.40
2019-06-01T05:39:21.569Z,16.70
2019-06-01T05:44:26.835Z,16.90
2019-06-01T05:49:32.131Z,16.90
2019-06-01T05:54:37.456Z,16.80
2019-06-01T05:59:42.855Z,16.70
2019-06-01T06:04:48.156Z,17.30
2019-06-01T06:09:54.536Z,18.30
2019-06-01T06:14:59.855Z,18.50
2019-06-01T06:20:06.217Z,18.00
2019-06-01T06:25:14.025Z,18.90
2019-06-01T06:30:19.072Z,19.50
2019-06-01T06:35:24.717Z,20.20
2019-06-01T06:40:30.088Z,20.70
2019-06-01T06:45:35.510Z,20.90
2019-06-01T06:50:40.851Z,20.80
2019-06-01T06:55:46.276Z,21.00
2019-06-01T07:00:51.636Z,20.90
2019-06-01T07:05:57.083Z,21.50
2019-06-01T07:11:02.446Z,21.40
2019-06-01T07:16:07.904Z,21.70
2019-06-01T07:21:13.290Z,21.80
2019-06-01T07:26:19.854Z,22.20
2019-06-01T07:31:26.272Z,21.60
2019-06-01T07:36:32.794Z,21.90
2019-06-01T07:41:39.335Z,20.20
2019-06-01T07:46:44.643Z,20.80
2019-06-01T07:51:50.061Z,22.40
2019-06-01T07:56:55.491Z,22.80
2019-06-01T08:02:00.821Z,23.70
2019-06-01T08:07:06.207Z,23.10
2019-06-01T08:12:11.516Z,23.60
2019-06-01T08:17:16.804Z,24.80
2019-06-01T08:22:22.219Z,25.50
2019-06-01T08:27:28.462Z,25.30
2019-06-01T08:32:33.905Z,25.70
2019-06-01T08:37:39.375Z,24.90
2019-06-01T08:42:44.673Z,25.60
2019-06-01T08:47:50.023Z,26.10
2019-06-01T08:52:55.480Z,25.80
2019-06-01T08:58:00.877Z,25.50
2019-06-01T09:03:06.174Z,26.10
2019-06-01T09:08:11.465Z,26.70
2019-06-01T09:13:16.763Z,26.90
2019-06-01T09:18:22.533Z,26.20
2019-06-01T09:23:27.891Z,26.70
2019-06-01T09:28:33.989Z,27.20
2019-06-01T09:33:39.367Z,27.30
2019-06-01T09:38:45.063Z,27.80
2019-06-01T09:43:50.677Z,25.80
2019-06-01T09:48:56.512Z,26.30
2019-06-01T09:54:01.931Z,26.90
2019-06-01T09:59:07.300Z,27.60
2019-06-01T10:04:12.606Z,28.50
2019-06-01T10:09:17.948Z,28.60
2019-06-01T10:14:24.091Z,29.40
2019-06-01T10:19:30.603Z,29.80
2019-06-01T10:24:37.151Z,27.20
2019-06-01T10:29:43.075Z,25.70
2019-06-01T10:34:48.437Z,27.30
2019-06-01T10:39:53.828Z,28.60
2019-06-01T10:44:59.122Z,27.70
2019-06-01T10:50:05.177Z,27.80
2019-06-01T10:55:10.852Z,28.20
2019-06-01T11:00:16.552Z,28.90
2019-06-01T11:05:21.877Z,29.20
2019-06-01T11:10:27.217Z,29.80
2019-06-01T11:15:33.121Z,29.80
2019-06-01T11:20:41.755Z,27.70
2019-06-01T11:25:47.300Z,28.10
2019-06-01T11:30:53.028Z,29.60
2019-06-01T11:35:58.312Z,29.70
2019-06-01T11:41:03.681Z,28.60
2019-06-01T11:46:08.975Z,29.30
2019-06-01T11:51:14.351Z,30.20
2019-06-01T11:56:19.727Z,29.40
2019-06-01T12:01:25.051Z,28.20
2019-06-01T12:06:30.466Z,28.60
2019-06-01T12:11:35.840Z,28.30
2019-06-01T12:16:42.546Z,27.50
2019-06-01T12:21:47.942Z,28.50
2019-06-01T12:26:53.264Z,28.90
2019-06-01T12:31:59.349Z,30.00
2019-06-01T12:37:04.644Z,29.70
2019-06-01T12:42:09.949Z,28.80
2019-06-01T12:47:15.244Z,28.70
2019-06-01T12:52:20.544Z,27.20
2019-06-01T12:57:25.945Z,26.20
2019-06-01T13:02:31.257Z,25.90
2019-06-01T13:07:51.147Z,25.30
2019-06-01T13:12:43.477Z,26.10
2019-06-01T13:17:49.468Z,25.80
2019-06-01T13:22:54.780Z,25.90
2019-06-01T13:28:00.083Z,25.80
2019-06-01T13:33:05.463Z,26.00
2019-06-01T13:38:12.524Z,25.60
2019-06-01T13:43:17.812Z,26.00
2019-06-01T13:48:23.124Z,26.40
2019-06-01T13:53:28.524Z,26.20
2019-06-01T13:58:33.827Z,26.70
2019-06-01T14:03:39.256Z,26.90
2019-06-01T14:08:44.985Z,27.00
2019-06-01T14:13:50.419Z,27.20
2019-06-01T14:18:57.307Z,26.70
2019-06-01T14:24:02.617Z,24.50
2019-06-01T14:29:07.912Z,26.80
2019-06-01T14:34:13.277Z,26.60
2019-06-01T14:39:18.719Z,26.60
2019-06-01T14:44:24.020Z,26.60
2019-06-01T14:49:29.308Z,26.00
2019-06-01T14:54:34.661Z,26.20
2019-06-01T14:59:40.084Z,25.90
2019-06-01T15:04:45.733Z,25.90
2019-06-01T15:09:52.229Z,26.20
2019-06-01T15:14:57.866Z,25.90
2019-06-01T15:20:03.445Z,26.00
2019-06-01T15:25:09.261Z,26.20
2019-06-01T15:30:15.232Z,26.20
2019-06-01T15:35:20.619Z,26.20
2019-06-01T15:40:27.155Z,26.10
2019-06-01T15:45:32.556Z,26.00
2019-06-01T15:50:37.952Z,26.00
2019-06-01T15:55:43.442Z,26.10
2019-06-01T16:00:49.830Z,25.90
2019-06-01T16:05:55.344Z,25.90
2019-06-01T16:11:04.397Z,25.80
2019-06-01T16:16:07.639Z,26.00
2019-06-01T16:21:12.955Z,25.90
2019-06-01T16:26:18.382Z,25.70
2019-06-01T16:31:23.829Z,25.70
2019-06-01T16:36:29.091Z,25.50
2019-06-01T16:41:34.440Z,25.50
2019-06-01T16:46:39.857Z,25.40
2019-06-01T16:51:56.766Z,25.20
2019-06-01T16:57:03.004Z,25.30
2019-06-01T17:02:09.490Z,25.20
2019-06-01T17:07:14.791Z,25.10
2019-06-01T17:12:20.212Z,25.00
2019-06-01T17:17:25.671Z,25.10
2019-06-01T17:22:30.987Z,25.00
2019-06-01T17:27:36.288Z,24.90
2019-06-01T17:32:41.587Z,24.80
2019-06-01T17:37:46.885Z,24.60
2019-06-01T17:42:52.168Z,24.50
2019-06-01T17:47:57.480Z,24.60
2019-06-01T17:53:02.783Z,24.50
2019-06-01T17:58:10.068Z,24.50
2019-06-01T18:03:15.551Z,24.40
2019-06-01T18:08:20.955Z,24.20
2019-06-01T18:13:26.306Z,24.10
2019-06-01T18:18:31.647Z,24.10
2019-06-01T18:23:36.998Z,24.00
2019-06-01T18:28:42.355Z,23.80
2019-06-01T18:33:47.657Z,23.60
2019-06-01T18:38:54.007Z,23.40
2019-06-01T18:44:00.419Z,23.20
2019-06-01T18:49:05.966Z,23.00
2019-06-01T18:54:13.052Z,22.90
2019-06-01T18:59:18.484Z,22.70
2019-06-01T19:04:23.830Z,22.40
2019-06-01T19:09:29.127Z,22.20
2019-06-01T19:14:34.493Z,21.90
2019-06-01T19:19:40.157Z,21.70
2019-06-01T19:24:45.516Z,21.60
2019-06-01T19:29:50.848Z,21.50
2019-06-01T19:34:56.283Z,21.30
2019-06-01T19:40:02.238Z,21.30
2019-06-01T19:45:23.530Z,21.20
2019-06-01T19:50:16.420Z,21.00
2019-06-01T19:55:22.072Z,20.90
2019-06-01T20:00:27.574Z,20.80
2019-06-01T20:05:33.091Z,17.20
2019-06-01T20:10:39.342Z,20.50
2019-06-01T20:15:44.804Z,20.40
2019-06-01T20:20:50.619Z,20.30
2019-06-01T20:25:55.936Z,20.30
2019-06-01T20:31:01.697Z,20.30
2019-06-01T20:36:07.143Z,20.20
2019-06-01T20:41:12.963Z,20.10
2019-06-01T20:46:18.952Z,20.00
2019-06-01T20:51:27.662Z,19.90
2019-06-01T20:56:31.819Z,19.80
2019-06-01T21:01:37.575Z,19.70
2019-06-01T21:06:43.499Z,19.70
2019-06-01T21:11:49.160Z,19.70
2019-06-01T21:16:54.599Z,19.60
2019-06-01T21:21:59.883Z,19.60
2019-06-01T21:27:05.851Z,19.40
2019-06-01T21:32:11.283Z,19.10
2019-06-01T21:37:17.417Z,18.50
2019-06-01T21:42:23.721Z,18.30
2019-06-01T21:47:32.135Z,18.00
2019-06-01T21:52:37.875Z,17.90
2019-06-01T21:57:43.153Z,17.80
2019-06-01T22:02:48.936Z,17.60
2019-06-01T22:07:54.754Z,17.80
2019-06-01T22:13:15.257Z,17.90
2019-06-01T22:18:08.744Z,17.70
2019-06-01T22:23:15.105Z,17.40
2019-06-01T22:28:20.535Z,17.20
2019-06-01T22:33:28.803Z,17.30
2019-06-01T22:38:35.323Z,17.20
2019-06-01T22:43:46.550Z,17.20
2019-06-01T22:48:47.660Z,17.10
2019-06-01T22:53:53.004Z,17.20
2019-06-01T22:58:58.568Z,17.20
2019-06-01T23:04:03.878Z,17.20
2019-06-01T23:09:09.391Z,17.00
2019-06-01T23:14:14.798Z,16.80
2019-06-01T23:19:21.550Z,16.60
2019-06-01T23:24:28.141Z,16.50
2019-06-01T23:29:33.672Z,16.30
2019-06-01T23:34:38.973Z,16.30
2019-06-01T23:39:44.369Z,16.30
2019-06-01T23:44:49.735Z,16.30
2019-06-01T23:49:54.991Z,16.10
2019-06-01T23:55:00.316Z,16.10
